Friday, January 18, 2019, 11:17 PM EST
Back to Local

KLGA, New York La Guardia Airport

Location: Astoria, NY, United States Lat: 40.783
Local Time: 11:17 PM EST ( 4:17 GMT) Lon: -73.883
Time Zone: US/Eastern Elev: 22 ft

Show me the last for .
Show Coded

Time T Td Feel RH Dir Speed Gust Alt SLP Vis Weather Sky Remarks
2019-01-18 22:51 37 29 30 72 310° 9 - 30.17 30.17 10 BKN044 BKN250 None
2019-01-18 21:51 36 29 29 75 290° 9 - 30.15 30.15 10 SCT050 BKN250 None
2019-01-18 20:51 36 30 30 78 290° 8 - 30.12 30.12 10 FEW050 BKN250 None
2019-01-18 19:51 37 30 30 75 290° 10 - 30.10 30.10 10 FEW017 SCT050 None
2019-01-18 18:51 38 30 32 72 280° 8 - 30.09 30.09 10 SCT050 6-hr Min Temp (7pm): 36.0°F
6-hr Max Temp (7pm): 42.1°F
2019-01-18 18:23 38 31 33 75 290° 7 - 30.09 - 10 SCT017 OVC050 None
2019-01-18 17:51 38 30 30 72 290° 13 - 30.09 30.09 10 BKN019 OVC032 None
2019-01-18 16:51 39 31 33 72 280° 9 - 30.07 30.07 10 OVC019 None
2019-01-18 15:51 40 32 38 73 Variable 3 - 30.07 30.06 8 OVC020 None
2019-01-18 14:51 38 32 33 78 50° 6 - 30.04 30.03 8 OVC016 None
2019-01-18 14:31 38 32 33 78 50° 6 - 30.04 - 9 BKN013 OVC019 None
2019-01-18 13:51 37 32 32 81 70° 6 - 30.05 30.04 8 SCT012 OVC015 None
2019-01-18 13:21 38 32 32 78 50° 8 - 30.06 - 8 SCT012 BKN025 OVC035 None
2019-01-18 12:51 36 32 31 85 50° 6 - 30.06 30.06 8 FEW009 SCT020 OVC033 6-hr Precip Total (1pm): 0.00"
6-hr Min Temp (1pm): 32.0°F
6-hr Max Temp (1pm): 36.0°F
2019-01-18 11:51 36 32 30 85 50° 8 - 30.09 30.09 8 FEW009 OVC034 None
2019-01-18 11:28 35 31 29 84 60° 7 - 30.10 - 8 SCT008 OVC034 None
2019-01-18 10:51 35 31 31 84 30° 5 - 30.12 30.11 10 BKN006 OVC036 None
2019-01-18 10:28 34 31 28 88 50° 7 - 30.12 - 9 BKN006 OVC030 None
2019-01-18 09:51 34 30 27 85 60° 9 - 30.12 30.11 10 OVC007 1-hr Precip Total: Trace
6-hr Precip Total (10am): 0.00"
2019-01-18 08:51 33 30 28 88 30° 6 - 30.11 30.11 4 -SN BR OVC005 1-hr Precip Total: Trace
2019-01-18 07:51 32 30 26 92 50° 7 - 30.11 30.10 3 -SN BR BKN005 OVC017 1-hr Precip Total: Trace
2019-01-18 06:51 32 29 26 88 50° 7 - 30.12 30.11 4 -SN BR OVC005 1-hr Precip Total: Trace
6-hr Precip Total (7am): 0.03"
24-hr Precip Total (7am): 0.03"
6-hr Min Temp (7am): 28.9°F
6-hr Max Temp (7am): 32.0°F
2019-01-18 06:47 32 28 26 86 50° 7 - 30.11 - 4 -SN BR OVC005 1-hr Precip Total: Trace
2019-01-18 06:09 31 29 26 92 Variable 5 - 30.11 - 5 -SN BR OVC007 1-hr Precip Total: Trace
2019-01-18 05:51 31 28 23 88 70° 8 - 30.11 30.11 3 -SN BR OVC005 1-hr Precip Total: Trace
2019-01-18 05:49 30 28 23 92 70° 7 - 30.11 - 3 -SN BR OVC005 1-hr Precip Total: Trace
2019-01-18 04:51 31 28 25 88 60° 6 - 30.13 30.12 1 -SN BR OVC005 1-hr Precip Total: 0.01"
2019-01-18 03:51 30 27 23 88 50° 7 - 30.15 30.14 1 -SN BR OVC005 1-hr Precip Total: 0.01"
6-hr Precip Total (4am): 0.02"
2019-01-18 03:42 30 27 24 88 40° 6 - 30.15 - 1 -SN BR BKN005 OVC017 1-hr Precip Total: Trace
2019-01-18 03:12 30 26 22 84 70° 9 - 30.17 - 2 -SN BR FEW008 OVC018 1-hr Precip Total: Trace
2019-01-18 02:51 30 26 22 84 50° 8 - 30.18 30.18 8 -SN OVC020 1-hr Precip Total: 0.01"
2019-01-18 02:25 29 25 21 84 50° 8 - 30.19 - 6 -SN BR SCT023 BKN028 OVC050 1-hr Precip Total: 0.01"
2019-01-18 01:51 29 23 22 78 40° 7 - 30.20 30.20 2 -SN OVC034 1-hr Precip Total: Trace
2019-01-18 01:45 28 23 21 79 60° 7 - 30.20 - 2 -SN OVC032 1-hr Precip Total: Trace
2019-01-18 00:51 30 20 24 65 50° 6 - 30.21 30.21 3 -SN OVC034 1-hr Precip Total: Trace
6-hr Precip Total (1am): 0.00"
6-hr Min Temp (1am): 30.0°F
6-hr Max Temp (1am): 34.0°F
2019-01-17 23:51 31 15 24 51 50° 7 - 30.24 30.23 10 OVC070 24-hr Min Temp (12am): 26.1°F
24-hr Max Temp (12am): 34.0°F

Support USWX by starting your Amazon purchase here.